sensor_id;sensor_type;location;lat;lon;timestamp;P1;durP1;ratioP1;P2;durP2;ratioP2
16063;SDS011;8136;53.172;8.256;2023-12-20T08:43:00;12.93;;;3.23;;
16063;SDS011;8136;53.172;8.256;2023-12-20T08:45:38;9.70;;;2.40;;
16063;SDS011;8136;53.172;8.256;2023-12-20T08:48:05;12.73;;;2.70;;
16063;SDS011;8136;53.172;8.256;2023-12-20T08:50:32;14.30;;;3.10;;
16063;SDS011;8136;53.172;8.256;2023-12-20T08:52:59;10.57;;;2.40;;
16063;SDS011;8136;53.172;8.256;2023-12-20T08:55:28;13.33;;;3.30;;
16063;SDS011;8136;53.172;8.256;2023-12-20T08:57:56;14.77;;;3.17;;
16063;SDS011;8136;53.172;8.256;2023-12-20T09:00:23;11.83;;;2.80;;
16063;SDS011;8136;53.172;8.256;2023-12-20T09:02:52;15.13;;;2.87;;
16063;SDS011;8136;53.172;8.256;2023-12-20T09:05:19;11.73;;;3.00;;
16063;SDS011;8136;53.172;8.256;2023-12-20T09:07:46;14.23;;;3.80;;
16063;SDS011;8136;53.172;8.256;2023-12-20T09:10:13;19.07;;;3.53;;
16063;SDS011;8136;53.172;8.256;2023-12-20T09:12:41;13.47;;;2.80;;
16063;SDS011;8136;53.172;8.256;2023-12-20T09:15:08;18.60;;;3.60;;
16063;SDS011;8136;53.172;8.256;2023-12-20T09:17:35;12.50;;;3.20;;
16063;SDS011;8136;53.172;8.256;2023-12-20T09:20:02;12.37;;;2.70;;
16063;SDS011;8136;53.172;8.256;2023-12-20T09:22:31;12.50;;;2.10;;
16063;SDS011;8136;53.172;8.256;2023-12-20T09:24:58;4.60;;;1.20;;
16063;SDS011;8136;53.172;8.256;2023-12-20T09:27:26;7.60;;;1.30;;
16063;SDS011;8136;53.172;8.256;2023-12-20T09:29:55;3.90;;;1.17;;
16063;SDS011;8136;53.172;8.256;2023-12-20T09:32:22;6.23;;;1.17;;
16063;SDS011;8136;53.172;8.256;2023-12-20T09:34:48;3.57;;;0.90;;
16063;SDS011;8136;53.172;8.256;2023-12-20T09:37:15;2.07;;;0.60;;
16063;SDS011;8136;53.172;8.256;2023-12-20T09:39:42;3.73;;;0.90;;
16063;SDS011;8136;53.172;8.256;2023-12-20T09:42:09;2.00;;;1.10;;
16063;SDS011;8136;53.172;8.256;2023-12-20T09:44:38;3.53;;;0.90;;
16063;SDS011;8136;53.172;8.256;2023-12-20T09:47:08;4.10;;;0.90;;
16063;SDS011;8136;53.172;8.256;2023-12-20T09:49:36;3.87;;;0.93;;
16063;SDS011;8136;53.172;8.256;2023-12-20T09:52:04;2.13;;;0.70;;
16063;SDS011;8136;53.172;8.256;2023-12-20T09:54:34;1.37;;;0.90;;
16063;SDS011;8136;53.172;8.256;2023-12-20T09:57:01;2.23;;;0.70;;
16063;SDS011;8136;53.172;8.256;2023-12-20T09:59:28;2.33;;;1.00;;
16063;SDS011;8136;53.172;8.256;2023-12-20T10:02:03;5.00;;;1.37;;
16063;SDS011;8136;53.172;8.256;2023-12-20T10:04:37;2.30;;;0.90;;
16063;SDS011;8136;53.172;8.256;2023-12-20T10:07:06;2.53;;;0.73;;
16063;SDS011;8136;53.172;8.256;2023-12-20T10:09:33;3.60;;;0.90;;
16063;SDS011;8136;53.172;8.256;2023-12-20T10:12:01;3.77;;;0.93;;
16063;SDS011;8136;53.172;8.256;2023-12-20T10:14:33;1.13;;;1.00;;
16063;SDS011;8136;53.172;8.256;2023-12-20T10:17:10;4.57;;;0.90;;
16063;SDS011;8136;53.172;8.256;2023-12-20T10:24:21;4.70;;;1.40;;
16063;SDS011;8136;53.172;8.256;2023-12-20T10:29:43;2.10;;;0.90;;
16063;SDS011;8136;53.172;8.256;2023-12-20T10:32:29;2.03;;;1.00;;
16063;SDS011;8136;53.172;8.256;2023-12-20T10:34:58;8.40;;;1.47;;
16063;SDS011;8136;53.172;8.256;2023-12-20T10:37:25;6.67;;;1.20;;
16063;SDS011;8136;53.172;8.256;2023-12-20T10:39:54;3.70;;;1.10;;
16063;SDS011;8136;53.172;8.256;2023-12-20T10:42:22;3.57;;;1.07;;
16063;SDS011;8136;53.172;8.256;2023-12-20T10:44:52;7.07;;;1.30;;
16063;SDS011;8136;53.172;8.256;2023-12-20T10:47:19;6.43;;;1.47;;
16063;SDS011;8136;53.172;8.256;2023-12-20T10:49:47;3.20;;;1.10;;
16063;SDS011;8136;53.172;8.256;2023-12-20T10:52:18;5.27;;;1.30;;
16063;SDS011;8136;53.172;8.256;2023-12-20T10:54:45;6.47;;;1.10;;
16063;SDS011;8136;53.172;8.256;2023-12-20T11:00:39;5.03;;;1.30;;
16063;SDS011;8136;53.172;8.256;2023-12-20T12:20:15;12.03;;;2.00;;
16063;SDS011;8136;53.172;8.256;2023-12-20T12:22:46;8.57;;;2.10;;
16063;SDS011;8136;53.172;8.256;2023-12-20T12:25:24;9.10;;;2.30;;
16063;SDS011;8136;53.172;8.256;2023-12-20T12:27:58;5.97;;;2.00;;
16063;SDS011;8136;53.172;8.256;2023-12-20T12:30:33;5.80;;;1.73;;
16063;SDS011;8136;53.172;8.256;2023-12-20T12:50:25;5.40;;;1.80;;
16063;SDS011;8136;53.172;8.256;2023-12-20T12:52:53;8.73;;;1.80;;
16063;SDS011;8136;53.172;8.256;2023-12-20T12:55:20;8.03;;;1.90;;
16063;SDS011;8136;53.172;8.256;2023-12-20T12:57:47;7.57;;;1.73;;
16063;SDS011;8136;53.172;8.256;2023-12-20T13:00:14;5.43;;;1.93;;
16063;SDS011;8136;53.172;8.256;2023-12-20T13:02:41;9.93;;;2.10;;
16063;SDS011;8136;53.172;8.256;2023-12-20T13:05:08;9.33;;;2.33;;
16063;SDS011;8136;53.172;8.256;2023-12-20T13:07:36;7.50;;;2.20;;
16063;SDS011;8136;53.172;8.256;2023-12-20T13:10:04;3.77;;;1.70;;
16063;SDS011;8136;53.172;8.256;2023-12-20T13:12:36;9.13;;;1.70;;
16063;SDS011;8136;53.172;8.256;2023-12-20T13:15:03;6.60;;;1.67;;
16063;SDS011;8136;53.172;8.256;2023-12-20T13:17:31;10.50;;;2.07;;
16063;SDS011;8136;53.172;8.256;2023-12-20T13:19:57;9.77;;;2.40;;
16063;SDS011;8136;53.172;8.256;2023-12-20T13:22:24;15.13;;;2.33;;
16063;SDS011;8136;53.172;8.256;2023-12-20T13:24:53;9.37;;;2.20;;
16063;SDS011;8136;53.172;8.256;2023-12-20T13:27:19;7.07;;;2.30;;
16063;SDS011;8136;53.172;8.256;2023-12-20T13:29:46;11.93;;;2.53;;
16063;SDS011;8136;53.172;8.256;2023-12-20T13:32:13;9.23;;;2.20;;
16063;SDS011;8136;53.172;8.256;2023-12-20T13:34:40;10.10;;;2.27;;
16063;SDS011;8136;53.172;8.256;2023-12-20T13:37:07;12.30;;;2.50;;
16063;SDS011;8136;53.172;8.256;2023-12-20T13:39:34;11.07;;;2.47;;
16063;SDS011;8136;53.172;8.256;2023-12-20T13:42:03;8.97;;;2.87;;
16063;SDS011;8136;53.172;8.256;2023-12-20T13:44:30;14.53;;;2.77;;
16063;SDS011;8136;53.172;8.256;2023-12-20T13:47:00;10.27;;;1.90;;
16063;SDS011;8136;53.172;8.256;2023-12-20T13:50:07;6.47;;;1.90;;
16063;SDS011;8136;53.172;8.256;2023-12-20T13:52:34;8.23;;;2.30;;
16063;SDS011;8136;53.172;8.256;2023-12-20T13:55:02;8.73;;;2.33;;
16063;SDS011;8136;53.172;8.256;2023-12-20T13:57:35;9.00;;;2.37;;
16063;SDS011;8136;53.172;8.256;2023-12-20T14:00:15;9.40;;;2.00;;
16063;SDS011;8136;53.172;8.256;2023-12-20T14:02:42;16.33;;;2.97;;
16063;SDS011;8136;53.172;8.256;2023-12-20T14:05:14;10.30;;;2.37;;
16063;SDS011;8136;53.172;8.256;2023-12-20T14:08:06;4.27;;;2.00;;
16063;SDS011;8136;53.172;8.256;2023-12-20T14:10:38;10.90;;;2.43;;
16063;SDS011;8136;53.172;8.256;2023-12-20T14:13:06;4.07;;;1.73;;
16063;SDS011;8136;53.172;8.256;2023-12-20T14:15:33;6.00;;;1.90;;
16063;SDS011;8136;53.172;8.256;2023-12-20T14:18:02;10.27;;;2.00;;
16063;SDS011;8136;53.172;8.256;2023-12-20T14:20:31;9.43;;;2.13;;
16063;SDS011;8136;53.172;8.256;2023-12-20T14:22:59;6.90;;;1.87;;
16063;SDS011;8136;53.172;8.256;2023-12-20T14:25:26;9.27;;;2.57;;
16063;SDS011;8136;53.172;8.256;2023-12-20T14:27:53;5.53;;;1.90;;
16063;SDS011;8136;53.172;8.256;2023-12-20T14:30:22;10.17;;;1.90;;
16063;SDS011;8136;53.172;8.256;2023-12-20T14:32:49;8.03;;;1.70;;
16063;SDS011;8136;53.172;8.256;2023-12-20T14:35:16;9.63;;;2.00;;
16063;SDS011;8136;53.172;8.256;2023-12-20T14:37:44;6.17;;;1.90;;
16063;SDS011;8136;53.172;8.256;2023-12-20T14:40:11;9.47;;;1.60;;
16063;SDS011;8136;53.172;8.256;2023-12-20T14:42:41;7.60;;;1.53;;
16063;SDS011;8136;53.172;8.256;2023-12-20T14:45:07;7.40;;;1.63;;
16063;SDS011;8136;53.172;8.256;2023-12-20T14:47:36;13.87;;;2.13;;
16063;SDS011;8136;53.172;8.256;2023-12-20T14:50:03;7.83;;;2.00;;
16063;SDS011;8136;53.172;8.256;2023-12-20T14:52:32;4.77;;;1.83;;
16063;SDS011;8136;53.172;8.256;2023-12-20T14:58:21;5.70;;;1.53;;
16063;SDS011;8136;53.172;8.256;2023-12-20T15:00:48;11.40;;;2.10;;
16063;SDS011;8136;53.172;8.256;2023-12-20T15:03:16;7.93;;;1.93;;
16063;SDS011;8136;53.172;8.256;2023-12-20T15:05:43;9.37;;;2.67;;
16063;SDS011;8136;53.172;8.256;2023-12-20T15:08:24;7.40;;;1.60;;
16063;SDS011;8136;53.172;8.256;2023-12-20T15:10:53;6.27;;;2.07;;
16063;SDS011;8136;53.172;8.256;2023-12-20T15:13:21;9.57;;;1.93;;
16063;SDS011;8136;53.172;8.256;2023-12-20T15:15:48;8.90;;;2.03;;
16063;SDS011;8136;53.172;8.256;2023-12-20T15:18:14;6.93;;;1.63;;
16063;SDS011;8136;53.172;8.256;2023-12-20T15:20:43;6.50;;;1.47;;
16063;SDS011;8136;53.172;8.256;2023-12-20T15:23:10;6.97;;;1.87;;
16063;SDS011;8136;53.172;8.256;2023-12-20T15:25:38;4.47;;;1.20;;
16063;SDS011;8136;53.172;8.256;2023-12-20T15:28:10;6.53;;;2.03;;
16063;SDS011;8136;53.172;8.256;2023-12-20T15:30:36;5.80;;;1.40;;
16063;SDS011;8136;53.172;8.256;2023-12-20T15:33:03;6.83;;;1.50;;
16063;SDS011;8136;53.172;8.256;2023-12-20T15:35:32;2.93;;;1.50;;
16063;SDS011;8136;53.172;8.256;2023-12-20T15:37:59;6.43;;;1.40;;
16063;SDS011;8136;53.172;8.256;2023-12-20T15:40:26;4.37;;;1.63;;
16063;SDS011;8136;53.172;8.256;2023-12-20T15:42:53;7.50;;;1.80;;
16063;SDS011;8136;53.172;8.256;2023-12-20T15:45:20;10.73;;;1.97;;
16063;SDS011;8136;53.172;8.256;2023-12-20T15:47:47;4.97;;;1.60;;
16063;SDS011;8136;53.172;8.256;2023-12-20T15:50:14;10.53;;;1.93;;
16063;SDS011;8136;53.172;8.256;2023-12-20T15:52:43;5.60;;;1.53;;
16063;SDS011;8136;53.172;8.256;2023-12-20T15:55:10;4.80;;;2.17;;
16063;SDS011;8136;53.172;8.256;2023-12-20T15:57:37;4.40;;;1.70;;
16063;SDS011;8136;53.172;8.256;2023-12-20T16:00:05;7.27;;;1.97;;
16063;SDS011;8136;53.172;8.256;2023-12-20T16:02:33;10.13;;;1.90;;
16063;SDS011;8136;53.172;8.256;2023-12-20T16:05:00;6.07;;;1.80;;
16063;SDS011;8136;53.172;8.256;2023-12-20T17:11:00;3.77;;;1.50;;
16063;SDS011;8136;53.172;8.256;2023-12-20T17:36:13;2.63;;;1.37;;
16063;SDS011;8136;53.172;8.256;2023-12-20T17:47:14;7.10;;;1.70;;
16063;SDS011;8136;53.172;8.256;2023-12-20T17:49:59;6.13;;;1.77;;
16063;SDS011;8136;53.172;8.256;2023-12-20T17:52:27;10.13;;;2.23;;
16063;SDS011;8136;53.172;8.256;2023-12-20T17:54:54;4.20;;;2.00;;
16063;SDS011;8136;53.172;8.256;2023-12-20T17:57:21;9.07;;;2.30;;
16063;SDS011;8136;53.172;8.256;2023-12-20T17:59:49;4.40;;;1.63;;
16063;SDS011;8136;53.172;8.256;2023-12-20T18:02:16;5.30;;;1.97;;
16063;SDS011;8136;53.172;8.256;2023-12-20T18:04:43;3.57;;;1.50;;
16063;SDS011;8136;53.172;8.256;2023-12-20T18:07:11;6.70;;;2.00;;
16063;SDS011;8136;53.172;8.256;2023-12-20T18:09:40;5.10;;;1.80;;
16063;SDS011;8136;53.172;8.256;2023-12-20T18:12:06;4.67;;;1.97;;
16063;SDS011;8136;53.172;8.256;2023-12-20T18:14:35;8.07;;;2.20;;
16063;SDS011;8136;53.172;8.256;2023-12-20T18:17:02;6.77;;;2.47;;
16063;SDS011;8136;53.172;8.256;2023-12-20T18:19:29;7.90;;;2.13;;
16063;SDS011;8136;53.172;8.256;2023-12-20T18:21:56;7.50;;;2.27;;
16063;SDS011;8136;53.172;8.256;2023-12-20T18:31:09;5.17;;;2.10;;
16063;SDS011;8136;53.172;8.256;2023-12-20T18:36:51;6.70;;;2.13;;
16063;SDS011;8136;53.172;8.256;2023-12-20T18:42:44;4.40;;;2.20;;
16063;SDS011;8136;53.172;8.256;2023-12-20T19:18:30;9.73;;;3.47;;
16063;SDS011;8136;53.172;8.256;2023-12-20T19:21:11;9.30;;;3.60;;
16063;SDS011;8136;53.172;8.256;2023-12-20T19:29:49;7.35;;;3.80;;
16063;SDS011;8136;53.172;8.256;2023-12-20T19:32:22;8.50;;;4.20;;
16063;SDS011;8136;53.172;8.256;2023-12-20T19:34:50;6.50;;;4.30;;
16063;SDS011;8136;53.172;8.256;2023-12-20T19:37:17;10.37;;;4.47;;
16063;SDS011;8136;53.172;8.256;2023-12-20T19:39:44;9.53;;;4.33;;
16063;SDS011;8136;53.172;8.256;2023-12-20T19:42:11;10.50;;;4.60;;
16063;SDS011;8136;53.172;8.256;2023-12-20T19:44:39;8.53;;;4.23;;
16063;SDS011;8136;53.172;8.256;2023-12-20T19:47:06;9.03;;;4.23;;
16063;SDS011;8136;53.172;8.256;2023-12-20T19:49:33;10.27;;;4.57;;
16063;SDS011;8136;53.172;8.256;2023-12-20T19:52:02;7.10;;;4.43;;
16063;SDS011;8136;53.172;8.256;2023-12-20T19:54:29;8.97;;;4.47;;
16063;SDS011;8136;53.172;8.256;2023-12-20T19:56:56;7.63;;;4.13;;
16063;SDS011;8136;53.172;8.256;2023-12-20T19:59:29;8.40;;;4.53;;
16063;SDS011;8136;53.172;8.256;2023-12-20T20:02:19;10.90;;;4.07;;
16063;SDS011;8136;53.172;8.256;2023-12-20T20:05:14;4.53;;;3.67;;
16063;SDS011;8136;53.172;8.256;2023-12-20T20:07:42;5.43;;;3.37;;
16063;SDS011;8136;53.172;8.256;2023-12-20T20:10:09;4.73;;;3.27;;
16063;SDS011;8136;53.172;8.256;2023-12-20T20:12:37;7.10;;;3.43;;
16063;SDS011;8136;53.172;8.256;2023-12-20T20:15:04;7.07;;;3.30;;
16063;SDS011;8136;53.172;8.256;2023-12-20T20:17:32;6.73;;;3.23;;
16063;SDS011;8136;53.172;8.256;2023-12-20T20:19:59;4.73;;;3.30;;
16063;SDS011;8136;53.172;8.256;2023-12-20T20:22:26;8.37;;;2.60;;
16063;SDS011;8136;53.172;8.256;2023-12-20T20:24:57;5.77;;;2.70;;
16063;SDS011;8136;53.172;8.256;2023-12-20T20:27:31;7.20;;;2.80;;
16063;SDS011;8136;53.172;8.256;2023-12-20T20:30:05;4.30;;;2.73;;
16063;SDS011;8136;53.172;8.256;2023-12-20T20:32:40;3.43;;;2.50;;
16063;SDS011;8136;53.172;8.256;2023-12-20T20:35:10;5.10;;;2.73;;
16063;SDS011;8136;53.172;8.256;2023-12-20T20:37:49;2.90;;;2.43;;
16063;SDS011;8136;53.172;8.256;2023-12-20T20:50:48;2.93;;;1.57;;
16063;SDS011;8136;53.172;8.256;2023-12-20T21:21:24;1.60;;;1.50;;
16063;SDS011;8136;53.172;8.256;2023-12-20T21:41:08;1.10;;;0.90;;
16063;SDS011;8136;53.172;8.256;2023-12-20T21:43:36;1.20;;;0.87;;
16063;SDS011;8136;53.172;8.256;2023-12-20T21:46:03;1.23;;;1.03;;
16063;SDS011;8136;53.172;8.256;2023-12-20T21:48:30;1.10;;;1.00;;
16063;SDS011;8136;53.172;8.256;2023-12-20T21:50:57;1.03;;;0.97;;
16063;SDS011;8136;53.172;8.256;2023-12-20T21:53:24;0.70;;;0.70;;
16063;SDS011;8136;53.172;8.256;2023-12-20T21:55:51;1.10;;;0.70;;
16063;SDS011;8136;53.172;8.256;2023-12-20T21:58:22;0.60;;;0.60;;
16063;SDS011;8136;53.172;8.256;2023-12-20T22:00:49;0.67;;;0.67;;
16063;SDS011;8136;53.172;8.256;2023-12-20T22:03:39;0.60;;;0.60;;
16063;SDS011;8136;53.172;8.256;2023-12-20T22:06:33;0.70;;;0.70;;
16063;SDS011;8136;53.172;8.256;2023-12-20T22:09:00;1.30;;;0.87;;
16063;SDS011;8136;53.172;8.256;2023-12-20T22:11:27;0.77;;;0.60;;
16063;SDS011;8136;53.172;8.256;2023-12-20T22:13:57;1.10;;;0.70;;
16063;SDS011;8136;53.172;8.256;2023-12-20T22:16:35;1.10;;;0.97;;
16063;SDS011;8136;53.172;8.256;2023-12-20T22:19:05;1.83;;;1.10;;
16063;SDS011;8136;53.172;8.256;2023-12-20T22:21:39;1.57;;;1.17;;
16063;SDS011;8136;53.172;8.256;2023-12-20T22:24:11;2.10;;;1.33;;
16063;SDS011;8136;53.172;8.256;2023-12-20T22:26:44;2.30;;;1.40;;
16063;SDS011;8136;53.172;8.256;2023-12-20T22:29:33;2.43;;;1.50;;
16063;SDS011;8136;53.172;8.256;2023-12-20T22:32:22;2.97;;;1.70;;
16063;SDS011;8136;53.172;8.256;2023-12-20T22:34:54;3.90;;;2.17;;
16063;SDS011;8136;53.172;8.256;2023-12-20T22:37:35;5.93;;;1.70;;
16063;SDS011;8136;53.172;8.256;2023-12-20T22:40:06;2.90;;;2.03;;
16063;SDS011;8136;53.172;8.256;2023-12-20T22:42:36;4.70;;;2.10;;
16063;SDS011;8136;53.172;8.256;2023-12-20T22:45:12;7.70;;;2.07;;
16063;SDS011;8136;53.172;8.256;2023-12-20T22:48:17;6.47;;;2.70;;
16063;SDS011;8136;53.172;8.256;2023-12-20T22:50:52;4.73;;;2.30;;
16063;SDS011;8136;53.172;8.256;2023-12-20T22:53:23;7.23;;;2.30;;
16063;SDS011;8136;53.172;8.256;2023-12-20T22:55:51;7.20;;;2.70;;
16063;SDS011;8136;53.172;8.256;2023-12-20T22:58:18;9.17;;;2.53;;
16063;SDS011;8136;53.172;8.256;2023-12-20T23:00:46;7.43;;;2.67;;
16063;SDS011;8136;53.172;8.256;2023-12-20T23:03:13;9.77;;;2.77;;
16063;SDS011;8136;53.172;8.256;2023-12-20T23:05:41;11.87;;;2.60;;
16063;SDS011;8136;53.172;8.256;2023-12-20T23:08:09;6.20;;;2.50;;
16063;SDS011;8136;53.172;8.256;2023-12-20T23:10:36;8.73;;;2.37;;
16063;SDS011;8136;53.172;8.256;2023-12-20T23:13:03;9.40;;;2.30;;
16063;SDS011;8136;53.172;8.256;2023-12-20T23:15:30;8.50;;;2.63;;
16063;SDS011;8136;53.172;8.256;2023-12-20T23:17:59;7.10;;;2.63;;
16063;SDS011;8136;53.172;8.256;2023-12-20T23:20:26;4.70;;;2.20;;
16063;SDS011;8136;53.172;8.256;2023-12-20T23:22:53;10.23;;;2.13;;
16063;SDS011;8136;53.172;8.256;2023-12-20T23:25:20;6.23;;;2.17;;
16063;SDS011;8136;53.172;8.256;2023-12-20T23:27:48;9.43;;;2.30;;
16063;SDS011;8136;53.172;8.256;2023-12-20T23:30:25;8.10;;;2.23;;
16063;SDS011;8136;53.172;8.256;2023-12-20T23:33:08;10.67;;;3.03;;
16063;SDS011;8136;53.172;8.256;2023-12-20T23:35:36;8.53;;;2.20;;
16063;SDS011;8136;53.172;8.256;2023-12-20T23:38:04;9.97;;;2.40;;
16063;SDS011;8136;53.172;8.256;2023-12-20T23:40:44;8.23;;;2.53;;
16063;SDS011;8136;53.172;8.256;2023-12-20T23:43:14;11.73;;;2.97;;
